sensor_id;sensor_type;location;lat;lon;timestamp;pressure;altitude;pressure_sealevel;temperature
70533;BMP180;58088;51.186;17.130;2022-12-04T00:00:18;100795.20;;;5.14
70533;BMP180;58088;51.186;17.130;2022-12-04T00:02:44;100794.60;;;5.12
70533;BMP180;58088;51.186;17.130;2022-12-04T00:05:10;100789.40;;;5.10
70533;BMP180;58088;51.186;17.130;2022-12-04T00:07:36;100794.80;;;5.10
70533;BMP180;58088;51.186;17.130;2022-12-04T00:10:03;100792.60;;;5.10
70533;BMP180;58088;51.186;17.130;2022-12-04T00:12:29;100794.80;;;5.10
70533;BMP180;58088;51.186;17.130;2022-12-04T00:14:56;100794.40;;;5.10
70533;BMP180;58088;51.186;17.130;2022-12-04T00:17:22;100796.20;;;5.10
70533;BMP180;58088;51.186;17.130;2022-12-04T00:19:48;100798.80;;;5.10
70533;BMP180;58088;51.186;17.130;2022-12-04T00:22:14;100804.40;;;5.10
70533;BMP180;58088;51.186;17.130;2022-12-04T00:24:40;100811.40;;;5.00
70533;BMP180;58088;51.186;17.130;2022-12-04T00:27:06;100814.00;;;5.06
70533;BMP180;58088;51.186;17.130;2022-12-04T00:29:32;100811.80;;;5.10
70533;BMP180;58088;51.186;17.130;2022-12-04T00:31:58;100808.00;;;5.10
70533;BMP180;58088;51.186;17.130;2022-12-04T00:34:25;100802.80;;;5.10
70533;BMP180;58088;51.186;17.130;2022-12-04T00:36:51;100801.60;;;5.10
70533;BMP180;58088;51.186;17.130;2022-12-04T00:39:17;100790.40;;;5.16
70533;BMP180;58088;51.186;17.130;2022-12-04T00:41:43;100793.00;;;5.14
70533;BMP180;58088;51.186;17.130;2022-12-04T00:44:09;100789.20;;;5.10
70533;BMP180;58088;51.186;17.130;2022-12-04T00:46:35;100794.40;;;5.10
70533;BMP180;58088;51.186;17.130;2022-12-04T00:49:02;100797.40;;;5.10
70533;BMP180;58088;51.186;17.130;2022-12-04T00:51:28;100798.00;;;5.04
70533;BMP180;58088;51.186;17.130;2022-12-04T00:53:55;100792.80;;;5.10
70533;BMP180;58088;51.186;17.130;2022-12-04T00:56:25;100789.40;;;5.10
70533;BMP180;58088;51.186;17.130;2022-12-04T00:58:55;100790.00;;;5.12
70533;BMP180;58088;51.186;17.130;2022-12-04T01:01:24;100776.20;;;5.10
70533;BMP180;58088;51.186;17.130;2022-12-04T01:03:53;100772.20;;;5.10
70533;BMP180;58088;51.186;17.130;2022-12-04T01:06:24;100786.40;;;5.10
70533;BMP180;58088;51.186;17.130;2022-12-04T01:08:53;100779.80;;;5.10
70533;BMP180;58088;51.186;17.130;2022-12-04T01:11:21;100774.20;;;5.10
70533;BMP180;58088;51.186;17.130;2022-12-04T01:13:48;100774.20;;;5.10
70533;BMP180;58088;51.186;17.130;2022-12-04T01:16:21;100766.20;;;5.10
70533;BMP180;58088;51.186;17.130;2022-12-04T01:18:49;100768.00;;;5.20
70533;BMP180;58088;51.186;17.130;2022-12-04T01:21:17;100775.40;;;5.20
70533;BMP180;58088;51.186;17.130;2022-12-04T01:23:44;100773.00;;;5.20
70533;BMP180;58088;51.186;17.130;2022-12-04T01:26:11;100775.80;;;5.20
70533;BMP180;58088;51.186;17.130;2022-12-04T01:28:38;100764.60;;;5.20
70533;BMP180;58088;51.186;17.130;2022-12-04T01:31:12;100759.20;;;5.20
70533;BMP180;58088;51.186;17.130;2022-12-04T01:33:41;100756.00;;;5.20
70533;BMP180;58088;51.186;17.130;2022-12-04T01:36:11;100754.80;;;5.20
70533;BMP180;58088;51.186;17.130;2022-12-04T01:38:38;100749.60;;;5.20
70533;BMP180;58088;51.186;17.130;2022-12-04T01:41:05;100752.80;;;5.20
70533;BMP180;58088;51.186;17.130;2022-12-04T01:43:35;100748.40;;;5.20
70533;BMP180;58088;51.186;17.130;2022-12-04T01:46:03;100745.00;;;5.20
70533;BMP180;58088;51.186;17.130;2022-12-04T01:48:45;100742.00;;;5.20
70533;BMP180;58088;51.186;17.130;2022-12-04T01:51:21;100735.80;;;5.20
70533;BMP180;58088;51.186;17.130;2022-12-04T01:53:58;100741.80;;;5.20
70533;BMP180;58088;51.186;17.130;2022-12-04T01:56:37;100740.60;;;5.20
70533;BMP180;58088;51.186;17.130;2022-12-04T01:59:08;100740.40;;;5.20
70533;BMP180;58088;51.186;17.130;2022-12-04T02:02:15;100742.20;;;5.26
70533;BMP180;58088;51.186;17.130;2022-12-04T02:05:06;100744.40;;;5.32
70533;BMP180;58088;51.186;17.130;2022-12-04T02:07:33;100739.80;;;5.30
70533;BMP180;58088;51.186;17.130;2022-12-04T02:10:00;100737.00;;;5.30
70533;BMP180;58088;51.186;17.130;2022-12-04T02:13:01;100739.80;;;5.30
70533;BMP180;58088;51.186;17.130;2022-12-04T02:18:32;100736.40;;;5.30
70533;BMP180;58088;51.186;17.130;2022-12-04T02:21:35;100737.00;;;5.30
70533;BMP180;58088;51.186;17.130;2022-12-04T02:24:25;100742.40;;;5.30
70533;BMP180;58088;51.186;17.130;2022-12-04T02:27:07;100737.40;;;5.30
70533;BMP180;58088;51.186;17.130;2022-12-04T02:29:47;100735.20;;;5.28
70533;BMP180;58088;51.186;17.130;2022-12-04T02:35:16;100728.80;;;5.20
70533;BMP180;58088;51.186;17.130;2022-12-04T02:37:54;100731.00;;;5.20
70533;BMP180;58088;51.186;17.130;2022-12-04T02:40:30;100732.60;;;5.10
70533;BMP180;58088;51.186;17.130;2022-12-04T02:43:14;100732.60;;;5.06
70533;BMP180;58088;51.186;17.130;2022-12-04T02:45:59;100721.00;;;5.00
70533;BMP180;58088;51.186;17.130;2022-12-04T02:48:29;100718.80;;;5.00
70533;BMP180;58088;51.186;17.130;2022-12-04T02:51:00;100725.40;;;4.90
70533;BMP180;58088;51.186;17.130;2022-12-04T02:53:35;100742.80;;;4.90
70533;BMP180;58088;51.186;17.130;2022-12-04T02:56:12;100734.60;;;4.90
70533;BMP180;58088;51.186;17.130;2022-12-04T02:58:55;100739.80;;;4.90
70533;BMP180;58088;51.186;17.130;2022-12-04T03:01:37;100734.80;;;4.90
70533;BMP180;58088;51.186;17.130;2022-12-04T03:04:19;100731.20;;;4.90
70533;BMP180;58088;51.186;17.130;2022-12-04T03:06:57;100737.80;;;4.90
70533;BMP180;58088;51.186;17.130;2022-12-04T03:09:54;100743.20;;;4.90
70533;BMP180;58088;51.186;17.130;2022-12-04T03:15:10;100737.40;;;4.80
70533;BMP180;58088;51.186;17.130;2022-12-04T03:17:51;100729.00;;;4.80
70533;BMP180;58088;51.186;17.130;2022-12-04T03:20:19;100736.40;;;4.80
70533;BMP180;58088;51.186;17.130;2022-12-04T03:22:54;100729.40;;;4.80
70533;BMP180;58088;51.186;17.130;2022-12-04T03:25:31;100728.80;;;4.76
70533;BMP180;58088;51.186;17.130;2022-12-04T03:28:13;100736.00;;;4.78
70533;BMP180;58088;51.186;17.130;2022-12-04T03:30:49;100734.80;;;4.80
70533;BMP180;58088;51.186;17.130;2022-12-04T03:33:25;100728.60;;;4.80
70533;BMP180;58088;51.186;17.130;2022-12-04T03:36:25;100733.60;;;4.80
70533;BMP180;58088;51.186;17.130;2022-12-04T03:41:44;100738.60;;;4.80
70533;BMP180;58088;51.186;17.130;2022-12-04T03:47:40;100733.80;;;4.70
70533;BMP180;58088;51.186;17.130;2022-12-04T03:50:29;100726.00;;;4.70
70533;BMP180;58088;51.186;17.130;2022-12-04T03:53:14;100724.40;;;4.70
70533;BMP180;58088;51.186;17.130;2022-12-04T03:56:09;100721.80;;;4.70
70533;BMP180;58088;51.186;17.130;2022-12-04T03:59:06;100717.60;;;4.64
70533;BMP180;58088;51.186;17.130;2022-12-04T04:01:37;100722.20;;;4.60
70533;BMP180;58088;51.186;17.130;2022-12-04T04:04:08;100727.00;;;4.60
70533;BMP180;58088;51.186;17.130;2022-12-04T04:07:03;100724.40;;;4.60
70533;BMP180;58088;51.186;17.130;2022-12-04T04:09:39;100726.60;;;4.60
70533;BMP180;58088;51.186;17.130;2022-12-04T04:12:27;100717.80;;;4.50
70533;BMP180;58088;51.186;17.130;2022-12-04T04:15:10;100725.00;;;4.50
70533;BMP180;58088;51.186;17.130;2022-12-04T04:17:57;100714.60;;;4.50
70533;BMP180;58088;51.186;17.130;2022-12-04T04:20:56;100714.60;;;4.50
70533;BMP180;58088;51.186;17.130;2022-12-04T04:23:45;100712.00;;;4.58
70533;BMP180;58088;51.186;17.130;2022-12-04T04:26:39;100713.60;;;4.58
70533;BMP180;58088;51.186;17.130;2022-12-04T04:29:08;100708.60;;;4.58
70533;BMP180;58088;51.186;17.130;2022-12-04T04:34:44;100701.60;;;4.62
70533;BMP180;58088;51.186;17.130;2022-12-04T04:40:45;100697.80;;;4.60
70533;BMP180;58088;51.186;17.130;2022-12-04T04:43:34;100698.20;;;4.70
70533;BMP180;58088;51.186;17.130;2022-12-04T04:46:33;100694.40;;;4.70
70533;BMP180;58088;51.186;17.130;2022-12-04T04:49:04;100694.60;;;4.70
70533;BMP180;58088;51.186;17.130;2022-12-04T04:51:33;100691.80;;;4.70
70533;BMP180;58088;51.186;17.130;2022-12-04T04:54:06;100693.60;;;4.62
70533;BMP180;58088;51.186;17.130;2022-12-04T04:56:43;100694.20;;;4.60
70533;BMP180;58088;51.186;17.130;2022-12-04T04:59:11;100687.80;;;4.60
70533;BMP180;58088;51.186;17.130;2022-12-04T05:01:40;100690.20;;;4.60
70533;BMP180;58088;51.186;17.130;2022-12-04T05:04:07;100694.20;;;4.60
70533;BMP180;58088;51.186;17.130;2022-12-04T05:06:33;100695.20;;;4.60
70533;BMP180;58088;51.186;17.130;2022-12-04T05:08:59;100696.60;;;4.60
70533;BMP180;58088;51.186;17.130;2022-12-04T05:11:26;100686.00;;;4.70
70533;BMP180;58088;51.186;17.130;2022-12-04T05:13:52;100688.60;;;4.70
70533;BMP180;58088;51.186;17.130;2022-12-04T05:16:18;100687.60;;;4.70
70533;BMP180;58088;51.186;17.130;2022-12-04T05:18:44;100688.40;;;4.70
70533;BMP180;58088;51.186;17.130;2022-12-04T05:21:31;100683.00;;;4.80
70533;BMP180;58088;51.186;17.130;2022-12-04T05:23:57;100690.60;;;4.80
70533;BMP180;58088;51.186;17.130;2022-12-04T05:26:24;100685.60;;;4.80
70533;BMP180;58088;51.186;17.130;2022-12-04T05:28:50;100686.60;;;4.88
70533;BMP180;58088;51.186;17.130;2022-12-04T05:31:16;100689.60;;;4.90
70533;BMP180;58088;51.186;17.130;2022-12-04T05:33:42;100696.20;;;4.90
70533;BMP180;58088;51.186;17.130;2022-12-04T05:36:10;100696.60;;;5.00
70533;BMP180;58088;51.186;17.130;2022-12-04T05:38:38;100706.20;;;5.06
70533;BMP180;58088;51.186;17.130;2022-12-04T05:41:05;100703.20;;;5.10
70533;BMP180;58088;51.186;17.130;2022-12-04T05:43:33;100699.60;;;5.10
70533;BMP180;58088;51.186;17.130;2022-12-04T05:46:01;100697.00;;;5.10
70533;BMP180;58088;51.186;17.130;2022-12-04T05:48:28;100693.40;;;5.10
70533;BMP180;58088;51.186;17.130;2022-12-04T05:50:54;100691.40;;;5.10
70533;BMP180;58088;51.186;17.130;2022-12-04T05:53:20;100690.40;;;5.10
70533;BMP180;58088;51.186;17.130;2022-12-04T05:55:57;100693.20;;;5.10
70533;BMP180;58088;51.186;17.130;2022-12-04T05:58:24;100698.40;;;5.10
70533;BMP180;58088;51.186;17.130;2022-12-04T06:00:50;100704.00;;;5.20
70533;BMP180;58088;51.186;17.130;2022-12-04T06:03:16;100714.20;;;5.20
70533;BMP180;58088;51.186;17.130;2022-12-04T06:05:43;100714.00;;;5.20
70533;BMP180;58088;51.186;17.130;2022-12-04T06:08:09;100713.80;;;5.20
70533;BMP180;58088;51.186;17.130;2022-12-04T06:10:35;100710.00;;;5.20
70533;BMP180;58088;51.186;17.130;2022-12-04T06:13:04;100710.80;;;5.20
70533;BMP180;58088;51.186;17.130;2022-12-04T06:15:30;100704.20;;;5.24
70533;BMP180;58088;51.186;17.130;2022-12-04T06:17:56;100705.60;;;5.30
70533;BMP180;58088;51.186;17.130;2022-12-04T06:20:22;100711.60;;;5.30
70533;BMP180;58088;51.186;17.130;2022-12-04T06:22:48;100710.60;;;5.30
70533;BMP180;58088;51.186;17.130;2022-12-04T06:25:15;100722.80;;;5.30
70533;BMP180;58088;51.186;17.130;2022-12-04T06:27:41;100719.40;;;5.30
70533;BMP180;58088;51.186;17.130;2022-12-04T06:30:09;100728.40;;;5.30
70533;BMP180;58088;51.186;17.130;2022-12-04T06:32:35;100728.20;;;5.30
70533;BMP180;58088;51.186;17.130;2022-12-04T06:35:02;100733.20;;;5.30
70533;BMP180;58088;51.186;17.130;2022-12-04T06:37:29;100733.40;;;5.30
70533;BMP180;58088;51.186;17.130;2022-12-04T06:39:55;100740.40;;;5.30
70533;BMP180;58088;51.186;17.130;2022-12-04T06:42:21;100737.60;;;5.30
70533;BMP180;58088;51.186;17.130;2022-12-04T06:44:48;100735.80;;;5.40
70533;BMP180;58088;51.186;17.130;2022-12-04T06:47:14;100741.80;;;5.40
70533;BMP180;58088;51.186;17.130;2022-12-04T06:49:40;100746.20;;;5.40
70533;BMP180;58088;51.186;17.130;2022-12-04T06:52:07;100745.60;;;5.40
70533;BMP180;58088;51.186;17.130;2022-12-04T06:54:33;100748.20;;;5.40
70533;BMP180;58088;51.186;17.130;2022-12-04T06:57:00;100744.40;;;5.40
70533;BMP180;58088;51.186;17.130;2022-12-04T06:59:26;100745.20;;;5.44
70533;BMP180;58088;51.186;17.130;2022-12-04T07:01:52;100743.80;;;5.50
70533;BMP180;58088;51.186;17.130;2022-12-04T07:04:19;100739.40;;;5.50
70533;BMP180;58088;51.186;17.130;2022-12-04T07:06:45;100748.60;;;5.50
70533;BMP180;58088;51.186;17.130;2022-12-04T07:09:16;100745.40;;;5.50
70533;BMP180;58088;51.186;17.130;2022-12-04T07:11:44;100746.60;;;5.50
70533;BMP180;58088;51.186;17.130;2022-12-04T07:14:12;100744.20;;;5.56
70533;BMP180;58088;51.186;17.130;2022-12-04T07:16:39;100741.40;;;5.60
70533;BMP180;58088;51.186;17.130;2022-12-04T07:19:11;100739.00;;;5.60
70533;BMP180;58088;51.186;17.130;2022-12-04T07:21:37;100739.00;;;5.60
70533;BMP180;58088;51.186;17.130;2022-12-04T07:24:04;100734.80;;;5.60
70533;BMP180;58088;51.186;17.130;2022-12-04T07:26:31;100735.80;;;5.60
70533;BMP180;58088;51.186;17.130;2022-12-04T07:28:58;100733.80;;;5.60
70533;BMP180;58088;51.186;17.130;2022-12-04T07:31:27;100727.60;;;5.60
70533;BMP180;58088;51.186;17.130;2022-12-04T07:33:54;100730.40;;;5.66
70533;BMP180;58088;51.186;17.130;2022-12-04T07:36:22;100733.60;;;5.70
70533;BMP180;58088;51.186;17.130;2022-12-04T07:38:50;100734.80;;;5.70
70533;BMP180;58088;51.186;17.130;2022-12-04T07:41:18;100732.20;;;5.70
70533;BMP180;58088;51.186;17.130;2022-12-04T07:43:45;100733.00;;;5.80
70533;BMP180;58088;51.186;17.130;2022-12-04T07:46:18;100731.40;;;5.80
70533;BMP180;58088;51.186;17.130;2022-12-04T07:48:45;100727.40;;;5.80
70533;BMP180;58088;51.186;17.130;2022-12-04T07:51:24;100731.40;;;5.90
70533;BMP180;58088;51.186;17.130;2022-12-04T07:53:52;100738.60;;;5.90
70533;BMP180;58088;51.186;17.130;2022-12-04T07:56:20;100739.00;;;5.92
70533;BMP180;58088;51.186;17.130;2022-12-04T07:58:46;100742.00;;;6.00
70533;BMP180;58088;51.186;17.130;2022-12-04T08:01:16;100743.80;;;6.00
70533;BMP180;58088;51.186;17.130;2022-12-04T08:03:45;100749.00;;;6.04
70533;BMP180;58088;51.186;17.130;2022-12-04T08:06:12;100756.60;;;6.10
70533;BMP180;58088;51.186;17.130;2022-12-04T08:08:38;100749.40;;;6.20
70533;BMP180;58088;51.186;17.130;2022-12-04T08:11:11;100745.00;;;6.20
70533;BMP180;58088;51.186;17.130;2022-12-04T08:13:37;100739.00;;;6.30
70533;BMP180;58088;51.186;17.130;2022-12-04T08:16:06;100742.00;;;6.30
70533;BMP180;58088;51.186;17.130;2022-12-04T08:18:33;100741.80;;;6.30
70533;BMP180;58088;51.186;17.130;2022-12-04T08:21:22;100742.80;;;6.30
70533;BMP180;58088;51.186;17.130;2022-12-04T08:23:52;100746.60;;;6.36
70533;BMP180;58088;51.186;17.130;2022-12-04T08:26:21;100739.00;;;6.40
70533;BMP180;58088;51.186;17.130;2022-12-04T08:28:48;100736.00;;;6.40
70533;BMP180;58088;51.186;17.130;2022-12-04T08:31:22;100742.20;;;6.50
70533;BMP180;58088;51.186;17.130;2022-12-04T08:33:52;100739.00;;;6.50
70533;BMP180;58088;51.186;17.130;2022-12-04T08:36:20;100737.40;;;6.50
70533;BMP180;58088;51.186;17.130;2022-12-04T08:38:47;100739.60;;;6.50
70533;BMP180;58088;51.186;17.130;2022-12-04T08:41:16;100738.20;;;6.50
70533;BMP180;58088;51.186;17.130;2022-12-04T08:43:44;100746.20;;;6.50
70533;BMP180;58088;51.186;17.130;2022-12-04T08:46:14;100735.00;;;6.54
70533;BMP180;58088;51.186;17.130;2022-12-04T08:48:43;100743.80;;;6.60
70533;BMP180;58088;51.186;17.130;2022-12-04T08:51:26;100746.20;;;6.60
70533;BMP180;58088;51.186;17.130;2022-12-04T08:53:59;100755.00;;;6.60
70533;BMP180;58088;51.186;17.130;2022-12-04T08:56:27;100749.00;;;6.68
70533;BMP180;58088;51.186;17.130;2022-12-04T08:58:55;100750.60;;;6.70
70533;BMP180;58088;51.186;17.130;2022-12-04T09:01:22;100750.80;;;6.70
70533;BMP180;58088;51.186;17.130;2022-12-04T09:03:50;100751.00;;;6.72
70533;BMP180;58088;51.186;17.130;2022-12-04T09:06:17;100753.60;;;6.80
70533;BMP180;58088;51.186;17.130;2022-12-04T09:08:43;100765.80;;;6.90
70533;BMP180;58088;51.186;17.130;2022-12-04T09:11:17;100767.60;;;6.90
70533;BMP180;58088;51.186;17.130;2022-12-04T09:13:47;100758.40;;;7.00
70533;BMP180;58088;51.186;17.130;2022-12-04T09:16:21;100765.00;;;7.00
70533;BMP180;58088;51.186;17.130;2022-12-04T09:18:49;100753.80;;;7.10
70533;BMP180;58088;51.186;17.130;2022-12-04T09:21:19;100749.60;;;7.10
70533;BMP180;58088;51.186;17.130;2022-12-04T09:23:50;100746.20;;;7.20
70533;BMP180;58088;51.186;17.130;2022-12-04T09:26:19;100747.80;;;7.30
70533;BMP180;58088;51.186;17.130;2022-12-04T09:28:51;100744.20;;;7.30
70533;BMP180;58088;51.186;17.130;2022-12-04T09:31:18;100746.40;;;7.40
70533;BMP180;58088;51.186;17.130;2022-12-04T09:33:45;100738.00;;;7.40
70533;BMP180;58088;51.186;17.130;2022-12-04T09:36:12;100741.00;;;7.52
70533;BMP180;58088;51.186;17.130;2022-12-04T09:38:47;100739.00;;;7.60
70533;BMP180;58088;51.186;17.130;2022-12-04T09:55:31;100737.60;;;8.30
70533;BMP180;58088;51.186;17.130;2022-12-04T09:58:04;100729.00;;;8.30
70533;BMP180;58088;51.186;17.130;2022-12-04T10:00:38;100732.80;;;8.40
70533;BMP180;58088;51.186;17.130;2022-12-04T10:03:19;100726.80;;;8.40
70533;BMP180;58088;51.186;17.130;2022-12-04T10:06:19;100723.40;;;8.48
70533;BMP180;58088;51.186;17.130;2022-12-04T10:09:09;100723.40;;;8.60
70533;BMP180;58088;51.186;17.130;2022-12-04T10:12:08;100714.00;;;8.70
70533;BMP180;58088;51.186;17.130;2022-12-04T10:15:00;100713.80;;;8.80
70533;BMP180;58088;51.186;17.130;2022-12-04T10:25:53;100709.60;;;9.00
70533;BMP180;58088;51.186;17.130;2022-12-04T10:28:44;100702.00;;;9.10
70533;BMP180;58088;51.186;17.130;2022-12-04T10:31:14;100702.40;;;9.20
70533;BMP180;58088;51.186;17.130;2022-12-04T10:33:51;100702.00;;;9.30
70533;BMP180;58088;51.186;17.130;2022-12-04T10:36:30;100699.60;;;9.30
70533;BMP180;58088;51.186;17.130;2022-12-04T10:39:28;100704.80;;;9.30
70533;BMP180;58088;51.186;17.130;2022-12-04T10:42:26;100697.80;;;9.40
70533;BMP180;58088;51.186;17.130;2022-12-04T10:44:52;100689.80;;;9.46
70533;BMP180;58088;51.186;17.130;2022-12-04T10:47:19;100690.40;;;9.50
70533;BMP180;58088;51.186;17.130;2022-12-04T10:49:57;100697.40;;;9.52
70533;BMP180;58088;51.186;17.130;2022-12-04T10:52:24;100704.80;;;9.60
70533;BMP180;58088;51.186;17.130;2022-12-04T10:55:03;100701.20;;;9.60
70533;BMP180;58088;51.186;17.130;2022-12-04T10:57:42;100691.40;;;9.70
70533;BMP180;58088;51.186;17.130;2022-12-04T11:00:34;100685.00;;;9.70
70533;BMP180;58088;51.186;17.130;2022-12-04T11:03:08;100683.20;;;9.80
70533;BMP180;58088;51.186;17.130;2022-12-04T11:05:54;100688.20;;;9.80
70533;BMP180;58088;51.186;17.130;2022-12-04T11:08:25;100685.00;;;9.80
70533;BMP180;58088;51.186;17.130;2022-12-04T11:11:02;100684.60;;;9.80
70533;BMP180;58088;51.186;17.130;2022-12-04T11:13:30;100678.40;;;9.80
70533;BMP180;58088;51.186;17.130;2022-12-04T11:15:59;100669.20;;;9.80
70533;BMP180;58088;51.186;17.130;2022-12-04T11:18:31;100676.20;;;9.90
70533;BMP180;58088;51.186;17.130;2022-12-04T11:21:16;100668.60;;;9.90
70533;BMP180;58088;51.186;17.130;2022-12-04T11:23:47;100672.00;;;9.90
70533;BMP180;58088;51.186;17.130;2022-12-04T11:26:16;100661.20;;;9.90
70533;BMP180;58088;51.186;17.130;2022-12-04T11:28:49;100666.20;;;9.90
70533;BMP180;58088;51.186;17.130;2022-12-04T11:31:20;100662.80;;;9.94
70533;BMP180;58088;51.186;17.130;2022-12-04T11:33:59;100658.60;;;9.96
70533;BMP180;58088;51.186;17.130;2022-12-04T11:36:34;100652.40;;;10.00
70533;BMP180;58088;51.186;17.130;2022-12-04T11:39:13;100650.00;;;10.00
70533;BMP180;58088;51.186;17.130;2022-12-04T11:41:42;100652.00;;;10.00
70533;BMP180;58088;51.186;17.130;2022-12-04T11:44:28;100649.60;;;10.10
70533;BMP180;58088;51.186;17.130;2022-12-04T11:46:58;100651.80;;;10.04
70533;BMP180;58088;51.186;17.130;2022-12-04T11:49:29;100638.20;;;10.10
70533;BMP180;58088;51.186;17.130;2022-12-04T11:55:13;100637.20;;;10.20
70533;BMP180;58088;51.186;17.130;2022-12-04T11:57:48;100641.40;;;10.20
70533;BMP180;58088;51.186;17.130;2022-12-04T12:00:22;100644.20;;;10.20
70533;BMP180;58088;51.186;17.130;2022-12-04T12:03:25;100643.20;;;10.10
70533;BMP180;58088;51.186;17.130;2022-12-04T12:09:30;100633.00;;;10.10
70533;BMP180;58088;51.186;17.130;2022-12-04T12:15:31;100637.80;;;10.00
70533;BMP180;58088;51.186;17.130;2022-12-04T12:18:17;100639.00;;;9.96
70533;BMP180;58088;51.186;17.130;2022-12-04T12:26:37;100636.80;;;9.70
70533;BMP180;58088;51.186;17.130;2022-12-04T12:29:54;100639.20;;;9.70
70533;BMP180;58088;51.186;17.130;2022-12-04T12:35:21;100644.20;;;9.50
70533;BMP180;58088;51.186;17.130;2022-12-04T12:37:56;100648.00;;;9.50
70533;BMP180;58088;51.186;17.130;2022-12-04T12:40:46;100652.80;;;9.40
70533;BMP180;58088;51.186;17.130;2022-12-04T12:43:28;100649.60;;;9.40
70533;BMP180;58088;51.186;17.130;2022-12-04T12:46:14;100650.20;;;9.34
70533;BMP180;58088;51.186;17.130;2022-12-04T12:49:19;100657.80;;;9.30
70533;BMP180;58088;51.186;17.130;2022-12-04T12:52:24;100653.60;;;9.30
70533;BMP180;58088;51.186;17.130;2022-12-04T12:54:59;100664.60;;;9.18
70533;BMP180;58088;51.186;17.130;2022-12-04T12:57:42;100665.40;;;9.10
70533;BMP180;58088;51.186;17.130;2022-12-04T13:00:21;100666.80;;;9.00
70533;BMP180;58088;51.186;17.130;2022-12-04T13:03:02;100670.60;;;9.00
70533;BMP180;58088;51.186;17.130;2022-12-04T13:05:42;100662.20;;;8.90
70533;BMP180;58088;51.186;17.130;2022-12-04T13:08:26;100657.20;;;8.90
70533;BMP180;58088;51.186;17.130;2022-12-04T13:11:26;100658.60;;;8.86
70533;BMP180;58088;51.186;17.130;2022-12-04T13:14:03;100649.40;;;8.80
70533;BMP180;58088;51.186;17.130;2022-12-04T13:16:36;100639.00;;;8.80
70533;BMP180;58088;51.186;17.130;2022-12-04T13:19:21;100632.80;;;8.70
70533;BMP180;58088;51.186;17.130;2022-12-04T13:25:14;100624.40;;;8.66
70533;BMP180;58088;51.186;17.130;2022-12-04T13:31:47;100623.40;;;8.60
70533;BMP180;58088;51.186;17.130;2022-12-04T13:42:24;100626.20;;;8.40
70533;BMP180;58088;51.186;17.130;2022-12-04T13:44:56;100632.00;;;8.40
70533;BMP180;58088;51.186;17.130;2022-12-04T13:47:33;100618.20;;;8.30
70533;BMP180;58088;51.186;17.130;2022-12-04T13:50:23;100626.40;;;8.24
70533;BMP180;58088;51.186;17.130;2022-12-04T13:52:51;100626.00;;;8.20
70533;BMP180;58088;51.186;17.130;2022-12-04T13:55:26;100626.20;;;8.10
70533;BMP180;58088;51.186;17.130;2022-12-04T14:00:40;100624.60;;;7.90
70533;BMP180;58088;51.186;17.130;2022-12-04T14:03:33;100613.80;;;7.80
70533;BMP180;58088;51.186;17.130;2022-12-04T14:06:30;100620.00;;;7.70
70533;BMP180;58088;51.186;17.130;2022-12-04T14:09:03;100628.80;;;7.64
70533;BMP180;58088;51.186;17.130;2022-12-04T14:11:53;100633.40;;;7.60
70533;BMP180;58088;51.186;17.130;2022-12-04T14:14:50;100635.40;;;7.50
70533;BMP180;58088;51.186;17.130;2022-12-04T14:17:28;100644.60;;;7.46
70533;BMP180;58088;51.186;17.130;2022-12-04T14:20:05;100654.20;;;7.40
70533;BMP180;58088;51.186;17.130;2022-12-04T14:30:28;100653.60;;;7.08
70533;BMP180;58088;51.186;17.130;2022-12-04T14:33:16;100654.60;;;7.00
70533;BMP180;58088;51.186;17.130;2022-12-04T14:36:09;100660.60;;;7.00
70533;BMP180;58088;51.186;17.130;2022-12-04T14:38:45;100655.20;;;6.92
70533;BMP180;58088;51.186;17.130;2022-12-04T14:41:22;100654.80;;;6.90
70533;BMP180;58088;51.186;17.130;2022-12-04T14:43:49;100651.00;;;6.82
70533;BMP180;58088;51.186;17.130;2022-12-04T14:49:36;100656.40;;;6.70
70533;BMP180;58088;51.186;17.130;2022-12-04T14:52:24;100654.20;;;6.60
70533;BMP180;58088;51.186;17.130;2022-12-04T14:58:15;100667.00;;;6.50
70533;BMP180;58088;51.186;17.130;2022-12-04T15:01:06;100662.80;;;6.40
70533;BMP180;58088;51.186;17.130;2022-12-04T15:03:46;100667.00;;;6.40
70533;BMP180;58088;51.186;17.130;2022-12-04T15:06:27;100671.40;;;6.40
70533;BMP180;58088;51.186;17.130;2022-12-04T15:09:00;100673.80;;;6.30
70533;BMP180;58088;51.186;17.130;2022-12-04T15:11:53;100676.80;;;6.26
70533;BMP180;58088;51.186;17.130;2022-12-04T15:14:47;100669.80;;;6.20
70533;BMP180;58088;51.186;17.130;2022-12-04T15:17:17;100671.60;;;6.10
70533;BMP180;58088;51.186;17.130;2022-12-04T15:19:43;100665.00;;;6.10
70533;BMP180;58088;51.186;17.130;2022-12-04T15:22:24;100668.80;;;6.04
70533;BMP180;58088;51.186;17.130;2022-12-04T15:24:52;100664.40;;;6.00
70533;BMP180;58088;51.186;17.130;2022-12-04T15:27:23;100668.40;;;6.00
70533;BMP180;58088;51.186;17.130;2022-12-04T15:29:53;100664.60;;;6.00
70533;BMP180;58088;51.186;17.130;2022-12-04T15:32:23;100670.20;;;5.90
70533;BMP180;58088;51.186;17.130;2022-12-04T15:35:05;100665.40;;;5.90
70533;BMP180;58088;51.186;17.130;2022-12-04T15:37:34;100664.00;;;5.90
70533;BMP180;58088;51.186;17.130;2022-12-04T15:40:07;100668.40;;;5.86
70533;BMP180;58088;51.186;17.130;2022-12-04T15:42:33;100675.60;;;5.80
70533;BMP180;58088;51.186;17.130;2022-12-04T15:50:29;100682.00;;;5.70
70533;BMP180;58088;51.186;17.130;2022-12-04T15:55:58;100686.60;;;5.70
70533;BMP180;58088;51.186;17.130;2022-12-04T15:58:30;100688.80;;;5.70
70533;BMP180;58088;51.186;17.130;2022-12-04T16:01:08;100685.60;;;5.60
70533;BMP180;58088;51.186;17.130;2022-12-04T16:06:29;100687.40;;;5.56
70533;BMP180;58088;51.186;17.130;2022-12-04T16:09:22;100689.00;;;5.50
70533;BMP180;58088;51.186;17.130;2022-12-04T16:12:16;100695.40;;;5.50
70533;BMP180;58088;51.186;17.130;2022-12-04T16:14:42;100689.60;;;5.50
70533;BMP180;58088;51.186;17.130;2022-12-04T16:17:10;100692.60;;;5.44
70533;BMP180;58088;51.186;17.130;2022-12-04T16:19:40;100690.40;;;5.40
70533;BMP180;58088;51.186;17.130;2022-12-04T16:22:14;100693.80;;;5.40